createdAt,value
2019-04-06T00:02:28.525Z,22.02
2019-04-06T00:04:57.236Z,22.35
2019-04-06T00:07:26.000Z,21.25
2019-04-06T00:09:54.712Z,20.02
2019-04-06T00:12:23.559Z,21.12
2019-04-06T00:14:52.451Z,20.12
2019-04-06T00:17:21.215Z,20.57
2019-04-06T00:19:49.996Z,20.30
2019-04-06T00:22:18.620Z,19.02
2019-04-06T00:24:47.447Z,20.92
2019-04-06T00:27:16.453Z,19.07
2019-04-06T00:29:45.192Z,19.80
2019-04-06T00:32:33.344Z,18.07
2019-04-06T00:35:02.145Z,16.52
2019-04-06T00:37:30.885Z,19.00
2019-04-06T00:39:59.536Z,19.98
2019-04-06T00:42:28.186Z,19.50
2019-04-06T00:44:57.023Z,17.60
2019-04-06T00:47:25.755Z,18.02
2019-04-06T00:49:54.515Z,18.77
2019-04-06T00:52:23.231Z,19.98
2019-04-06T00:54:51.920Z,19.60
2019-04-06T00:57:20.988Z,18.45
2019-04-06T00:59:50.414Z,19.57
2019-04-06T01:02:19.295Z,18.70
2019-04-06T01:04:47.979Z,18.48
2019-04-06T01:07:17.899Z,18.00
2019-04-06T01:09:47.072Z,18.25
2019-04-06T01:12:15.868Z,18.57
2019-04-06T01:14:44.560Z,15.83
2019-04-06T01:17:13.180Z,16.85
2019-04-06T01:19:42.900Z,16.17
2019-04-06T01:22:11.677Z,14.65
2019-04-06T01:24:40.378Z,17.10
2019-04-06T01:27:09.568Z,15.85
2019-04-06T01:29:38.340Z,16.87
2019-04-06T01:32:07.032Z,16.57
2019-04-06T01:34:35.805Z,17.48
2019-04-06T01:37:04.646Z,16.90
2019-04-06T01:39:33.295Z,17.82
2019-04-06T01:42:02.004Z,19.57
2019-04-06T01:44:30.700Z,20.85
2019-04-06T01:46:59.468Z,19.02
2019-04-06T01:49:28.183Z,19.77
2019-04-06T01:51:56.877Z,19.73
2019-04-06T01:54:25.588Z,20.43
2019-04-06T01:56:54.320Z,19.20
2019-04-06T01:59:24.212Z,20.23
2019-04-06T02:01:54.548Z,19.62
2019-04-06T02:04:23.307Z,18.73
2019-04-06T02:06:52.153Z,20.35
2019-04-06T02:09:20.796Z,19.17
2019-04-06T02:11:49.453Z,20.57
2019-04-06T02:14:18.173Z,21.65
2019-04-06T02:16:46.952Z,21.85
2019-04-06T02:19:15.709Z,23.38
2019-04-06T02:21:44.469Z,24.90
2019-04-06T02:24:13.154Z,24.25
2019-04-06T02:26:41.907Z,25.68
2019-04-06T02:29:10.606Z,25.55
2019-04-06T02:31:46.714Z,27.37
2019-04-06T02:34:22.779Z,27.40
2019-04-06T02:37:01.722Z,28.67
2019-04-06T02:39:32.130Z,30.00
2019-04-06T02:42:02.539Z,30.45
2019-04-06T02:44:31.157Z,30.30
2019-04-06T02:46:59.852Z,29.98
2019-04-06T02:49:28.605Z,30.77
2019-04-06T02:51:57.364Z,31.40
2019-04-06T02:54:26.106Z,32.40
2019-04-06T02:56:54.733Z,32.78
2019-04-06T02:59:23.525Z,33.85
2019-04-06T03:01:52.332Z,32.30
2019-04-06T03:04:20.953Z,33.50
2019-04-06T03:06:49.707Z,32.78
2019-04-06T03:09:18.414Z,33.45
2019-04-06T03:11:47.034Z,33.98
2019-04-06T03:14:15.720Z,33.98
2019-04-06T03:16:44.473Z,34.38
2019-04-06T03:19:13.229Z,35.30
2019-04-06T03:21:41.930Z,36.58
2019-04-06T03:24:10.724Z,36.30
2019-04-06T03:26:39.417Z,36.90
2019-04-06T03:29:08.166Z,36.83
2019-04-06T03:31:37.213Z,37.80
2019-04-06T03:34:05.999Z,36.98
2019-04-06T03:36:34.781Z,35.28
2019-04-06T03:39:05.367Z,38.78
2019-04-06T03:41:34.132Z,37.83
2019-04-06T03:44:03.043Z,37.45
2019-04-06T03:46:31.637Z,36.60
2019-04-06T03:49:00.247Z,37.67
2019-04-06T03:51:28.943Z,39.95
2019-04-06T03:53:57.695Z,38.65
2019-04-06T03:56:26.703Z,40.45
2019-04-06T03:58:55.420Z,39.10
2019-04-06T04:01:24.321Z,35.88
2019-04-06T04:03:53.364Z,40.00
2019-04-06T04:06:22.196Z,37.03
2019-04-06T04:08:50.898Z,38.20
2019-04-06T04:11:19.585Z,36.38
2019-04-06T04:13:48.285Z,37.20
2019-04-06T04:16:16.957Z,39.15
2019-04-06T04:18:45.696Z,37.50
2019-04-06T04:21:14.345Z,35.17
2019-04-06T04:23:43.140Z,36.53
2019-04-06T04:26:11.908Z,34.98
2019-04-06T04:28:40.609Z,35.80
2019-04-06T04:31:09.354Z,37.23
2019-04-06T04:33:38.090Z,35.78
2019-04-06T04:36:06.909Z,35.13
2019-04-06T04:38:35.486Z,36.90
2019-04-06T04:41:04.219Z,34.85
2019-04-06T04:43:33.198Z,33.42
2019-04-06T04:46:01.902Z,34.58
2019-04-06T04:48:30.589Z,34.75
2019-04-06T04:50:59.275Z,36.48
2019-04-06T04:53:27.889Z,34.90
2019-04-06T04:55:56.969Z,35.92
2019-04-06T04:58:25.647Z,35.65
2019-04-06T05:00:54.274Z,34.43
2019-04-06T05:03:22.954Z,34.83
2019-04-06T05:05:51.640Z,34.25
2019-04-06T05:08:20.393Z,34.25
2019-04-06T05:10:49.013Z,33.50
2019-04-06T05:13:17.698Z,33.88
2019-04-06T05:16:11.085Z,32.33
2019-04-06T05:18:40.845Z,33.00
2019-04-06T05:21:10.408Z,31.80
2019-04-06T05:23:39.172Z,34.08
2019-04-06T05:26:08.925Z,32.67
2019-04-06T05:28:37.668Z,32.10
2019-04-06T05:31:07.157Z,30.70
2019-04-06T05:33:35.927Z,29.60
2019-04-06T05:36:04.883Z,30.43
2019-04-06T05:38:33.485Z,30.27
2019-04-06T05:41:02.437Z,29.50
2019-04-06T05:43:31.133Z,29.12
2019-04-06T05:45:59.778Z,29.75
2019-04-06T05:48:28.517Z,30.43
2019-04-06T05:50:57.206Z,28.65
2019-04-06T05:53:25.900Z,26.60
2019-04-06T05:55:54.595Z,26.05
2019-04-06T05:58:23.364Z,27.52
2019-04-06T06:00:52.117Z,27.20
2019-04-06T06:03:20.807Z,26.12
2019-04-06T06:05:49.651Z,25.92
2019-04-06T06:08:18.301Z,24.55
2019-04-06T06:10:46.994Z,25.52
2019-04-06T06:13:15.682Z,25.55
2019-04-06T06:15:44.427Z,25.90
2019-04-06T06:18:13.222Z,22.85
2019-04-06T06:20:41.915Z,24.80
2019-04-06T06:23:10.660Z,24.23
2019-04-06T06:25:39.359Z,25.15
2019-04-06T06:28:14.465Z,25.88
2019-04-06T06:30:38.515Z,28.62
2019-04-06T06:33:07.183Z,26.80
2019-04-06T06:35:35.882Z,26.85
2019-04-06T06:38:04.868Z,29.23
2019-04-06T06:40:33.631Z,29.65
2019-04-06T06:43:02.246Z,27.82
2019-04-06T06:45:30.936Z,29.15
2019-04-06T06:47:59.558Z,29.52
2019-04-06T06:50:28.408Z,27.82
2019-04-06T06:52:57.101Z,30.60
2019-04-06T06:55:26.932Z,29.77
2019-04-06T06:57:56.131Z,33.53
2019-04-06T07:00:24.944Z,32.48
2019-04-06T07:02:53.649Z,31.55
2019-04-06T07:05:22.334Z,30.32
2019-04-06T07:07:51.035Z,32.93
2019-04-06T07:10:19.780Z,32.95
2019-04-06T07:12:48.475Z,34.18
2019-04-06T07:15:17.223Z,34.63
2019-04-06T07:17:45.930Z,34.78
2019-04-06T07:20:15.083Z,35.98
2019-04-06T07:22:43.812Z,34.25
2019-04-06T07:25:12.619Z,34.53
2019-04-06T07:27:41.181Z,35.63
2019-04-06T07:30:10.151Z,35.52
2019-04-06T07:32:38.905Z,36.40
2019-04-06T07:35:07.775Z,34.95
2019-04-06T07:37:36.592Z,37.17
2019-04-06T07:40:07.607Z,33.92
2019-04-06T07:42:36.301Z,33.08
2019-04-06T07:45:06.622Z,32.33
2019-04-06T07:47:35.231Z,31.12
2019-04-06T07:50:06.661Z,30.90
2019-04-06T07:52:35.609Z,31.12
2019-04-06T07:55:08.208Z,33.48
2019-04-06T07:57:36.969Z,32.58
2019-04-06T08:00:07.226Z,32.35
2019-04-06T08:02:35.990Z,34.43
2019-04-06T08:05:06.105Z,34.23
2019-04-06T08:07:34.838Z,35.80
2019-04-06T08:10:03.681Z,33.58
2019-04-06T08:12:32.368Z,37.63
2019-04-06T08:15:01.121Z,36.63
2019-04-06T08:17:29.848Z,36.30
2019-04-06T08:19:58.477Z,35.00
2019-04-06T08:22:27.240Z,33.85
2019-04-06T08:24:55.918Z,32.75
2019-04-06T08:27:24.672Z,34.73
2019-04-06T08:29:53.363Z,32.95
2019-04-06T08:32:22.060Z,32.75
2019-04-06T08:34:50.806Z,32.17
2019-04-06T08:37:19.586Z,33.28
2019-04-06T08:39:48.348Z,32.60
2019-04-06T08:42:17.237Z,32.95
2019-04-06T08:44:45.902Z,32.30
2019-04-06T08:47:14.656Z,30.88
2019-04-06T08:49:43.292Z,31.77
2019-04-06T08:52:12.326Z,29.57
2019-04-06T08:54:41.061Z,31.40
2019-04-06T08:57:09.813Z,30.77
2019-04-06T08:59:38.509Z,30.10
2019-04-06T09:02:07.361Z,28.10
2019-04-06T09:04:36.062Z,27.75
2019-04-06T09:07:04.975Z,26.35
2019-04-06T09:09:33.811Z,25.70
2019-04-06T09:12:02.387Z,26.07
2019-04-06T09:14:31.113Z,26.07
2019-04-06T09:16:59.879Z,25.30
2019-04-06T09:19:28.679Z,26.62
2019-04-06T09:21:57.285Z,26.48
2019-04-06T09:24:26.031Z,25.32
2019-04-06T09:26:54.934Z,25.35
2019-04-06T09:29:24.617Z,25.37
2019-04-06T09:31:53.840Z,22.77
2019-04-06T09:34:22.593Z,21.70
2019-04-06T09:36:51.593Z,21.90
2019-04-06T09:39:20.264Z,22.07
2019-04-06T09:41:48.894Z,20.10
2019-04-06T09:44:35.340Z,18.15
2019-04-06T09:47:06.955Z,16.97
2019-04-06T09:49:55.263Z,19.77
2019-04-06T09:52:31.185Z,17.50
2019-04-06T09:55:01.505Z,19.37
2019-04-06T09:57:47.841Z,17.57
2019-04-06T10:00:18.574Z,18.07
2019-04-06T10:02:48.910Z,17.87
2019-04-06T10:05:19.289Z,17.65
2019-04-06T10:08:05.591Z,17.55
2019-04-06T10:10:41.774Z,15.28
2019-04-06T10:13:23.949Z,15.05
2019-04-06T10:16:10.382Z,12.25
2019-04-06T10:18:43.340Z,12.93
2019-04-06T10:21:29.855Z,15.00
2019-04-06T10:24:02.985Z,13.75
2019-04-06T10:26:39.207Z,16.32
2019-04-06T10:29:25.397Z,16.73
2019-04-06T10:32:11.819Z,18.12
2019-04-06T10:34:42.239Z,18.70
2019-04-06T10:37:28.444Z,19.73
2019-04-06T10:40:01.434Z,21.82
2019-04-06T10:42:37.403Z,21.33
2019-04-06T10:45:08.570Z,21.30
2019-04-06T10:47:56.577Z,20.92
2019-04-06T10:50:30.589Z,19.98
2019-04-06T10:55:47.757Z,19.95
2019-04-06T10:58:26.662Z,19.57
2019-04-06T11:01:08.599Z,21.30
2019-04-06T11:03:47.636Z,20.35
2019-04-06T11:06:17.890Z,20.05
2019-04-06T11:08:50.821Z,21.90
2019-04-06T11:11:23.893Z,21.20
2019-04-06T11:14:09.037Z,21.87
2019-04-06T11:16:48.335Z,20.70
2019-04-06T11:19:33.444Z,22.67
2019-04-06T11:22:17.098Z,33.92
2019-04-06T11:24:56.268Z,42.30
2019-04-06T11:27:41.570Z,24.60
2019-04-06T11:30:17.697Z,23.65
2019-04-06T11:32:51.396Z,29.70
2019-04-06T11:35:37.537Z,31.57
2019-04-06T11:38:10.554Z,24.27
2019-04-06T11:40:46.612Z,22.93
2019-04-06T11:43:22.742Z,22.90
2019-04-06T11:45:55.809Z,21.42
2019-04-06T11:48:26.125Z,22.62
2019-04-06T11:50:59.193Z,23.67
2019-04-06T11:53:32.137Z,23.30
2019-04-06T11:56:17.369Z,24.23
2019-04-06T11:59:02.654Z,23.77
2019-04-06T12:01:41.997Z,22.82
2019-04-06T12:04:21.088Z,21.57
2019-04-06T12:06:51.433Z,22.82
2019-04-06T12:09:33.652Z,22.15
2019-04-06T12:12:16.081Z,21.73
2019-04-06T12:14:52.394Z,21.30
2019-04-06T12:17:22.669Z,21.77
2019-04-06T12:19:53.023Z,23.07
2019-04-06T12:22:38.008Z,19.67
2019-04-06T12:25:11.808Z,19.82
2019-04-06T12:27:44.760Z,19.60
2019-04-06T12:30:37.274Z,20.43
2019-04-06T12:33:05.827Z,18.05
2019-04-06T12:35:45.225Z,16.90
2019-04-06T12:38:18.153Z,17.73
2019-04-06T12:40:48.553Z,15.47
2019-04-06T12:43:21.411Z,17.60
2019-04-06T12:45:54.301Z,18.70
2019-04-06T12:48:27.373Z,17.80
2019-04-06T12:50:57.743Z,17.25
2019-04-06T12:53:30.729Z,17.15
2019-04-06T12:56:12.956Z,18.13
2019-04-06T12:58:55.210Z,17.62
2019-04-06T13:01:41.905Z,17.80
2019-04-06T13:04:30.322Z,17.52
2019-04-06T13:07:12.964Z,16.45
2019-04-06T13:09:43.353Z,17.70
2019-04-06T13:12:29.581Z,17.52
2019-04-06T13:15:00.246Z,17.10
2019-04-06T13:17:36.063Z,17.92
2019-04-06T13:20:17.383Z,19.48
2019-04-06T13:23:02.697Z,17.12
2019-04-06T13:25:38.793Z,16.93
2019-04-06T13:28:11.817Z,18.27
2019-04-06T13:31:01.230Z,18.30
2019-04-06T13:33:25.456Z,19.32
2019-04-06T13:36:11.884Z,19.95
2019-04-06T13:38:48.116Z,19.92
2019-04-06T13:41:27.706Z,20.00
2019-04-06T13:44:10.863Z,18.25
2019-04-06T13:46:41.769Z,17.87
2019-04-06T13:49:29.924Z,18.62
2019-04-06T13:52:12.246Z,18.02
2019-04-06T13:54:45.095Z,18.25
2019-04-06T13:57:17.951Z,18.80
2019-04-06T13:59:48.338Z,20.68
2019-04-06T14:02:36.410Z,20.50
2019-04-06T14:05:11.062Z,19.30
2019-04-06T14:07:41.371Z,20.12
2019-04-06T14:10:11.969Z,20.17
2019-04-06T14:12:54.537Z,21.55
2019-04-06T14:15:33.889Z,21.30
2019-04-06T14:18:04.355Z,18.55
2019-04-06T14:20:37.241Z,17.90
2019-04-06T14:23:07.960Z,19.40
2019-04-06T14:25:50.081Z,19.23
2019-04-06T14:28:29.648Z,19.05
2019-04-06T14:31:11.960Z,18.52
2019-04-06T14:33:48.310Z,17.65
2019-04-06T14:36:27.378Z,20.00
2019-04-06T14:38:57.722Z,19.67
2019-04-06T14:41:39.769Z,16.67
2019-04-06T14:44:18.692Z,18.12
2019-04-06T14:46:54.835Z,17.85
2019-04-06T14:49:33.035Z,18.57
2019-04-06T14:52:20.858Z,17.15
2019-04-06T14:54:51.199Z,17.70
2019-04-06T14:57:30.539Z,17.82
2019-04-06T15:00:18.760Z,18.90
2019-04-06T15:02:51.769Z,19.73
2019-04-06T15:05:22.105Z,20.17
2019-04-06T15:07:52.415Z,17.60
2019-04-06T15:10:28.668Z,17.00
2019-04-06T15:13:04.571Z,17.27
2019-04-06T15:15:35.167Z,17.35
2019-04-06T15:18:20.608Z,16.45
2019-04-06T15:20:51.022Z,16.57
2019-04-06T15:23:21.427Z,15.60
2019-04-06T15:26:00.493Z,16.82
2019-04-06T15:28:30.865Z,16.97
2019-04-06T15:31:01.181Z,15.28
2019-04-06T15:33:31.515Z,17.27
2019-04-06T15:36:04.910Z,15.15
2019-04-06T15:38:35.282Z,13.55
2019-04-06T15:41:17.246Z,13.88
2019-04-06T15:43:47.616Z,14.38
2019-04-06T15:46:17.950Z,14.85
2019-04-06T15:49:03.020Z,15.55
2019-04-06T15:51:33.359Z,15.13
2019-04-06T15:54:09.611Z,15.43
2019-04-06T15:56:42.562Z,14.58
2019-04-06T15:59:12.962Z,13.10
2019-04-06T16:01:43.285Z,13.95
2019-04-06T16:04:29.441Z,13.20
2019-04-06T16:07:11.627Z,14.40
2019-04-06T16:09:48.114Z,14.20
2019-04-06T16:12:18.965Z,15.32
2019-04-06T16:14:49.628Z,13.38
2019-04-06T16:17:29.021Z,13.78
2019-04-06T16:20:08.201Z,13.83
2019-04-06T16:22:54.344Z,13.25
2019-04-06T16:25:24.867Z,14.25
2019-04-06T16:28:11.394Z,13.58
2019-04-06T16:30:41.803Z,13.08
2019-04-06T16:33:27.228Z,14.85
2019-04-06T16:36:10.335Z,13.83
2019-04-06T16:38:58.450Z,14.55
2019-04-06T16:41:28.854Z,14.70
2019-04-06T16:44:15.585Z,15.28
2019-04-06T16:46:46.176Z,15.68
2019-04-06T16:49:28.318Z,16.00
2019-04-06T16:52:04.481Z,16.37
2019-04-06T16:54:40.581Z,17.12
2019-04-06T16:57:13.507Z,16.25
2019-04-06T16:59:59.801Z,17.17
2019-04-06T17:02:44.845Z,16.12
2019-04-06T17:05:20.736Z,17.37
2019-04-06T17:07:53.686Z,17.45
2019-04-06T17:10:30.065Z,18.67
2019-04-06T17:13:00.618Z,18.10
2019-04-06T17:15:40.107Z,17.65
2019-04-06T17:18:10.362Z,16.50
2019-04-06T17:20:52.458Z,16.17
2019-04-06T17:23:31.753Z,19.75
2019-04-06T17:26:10.994Z,19.10
2019-04-06T17:28:57.663Z,20.30
2019-04-06T17:31:34.601Z,18.32
2019-04-06T17:34:21.139Z,18.40
2019-04-06T17:37:07.416Z,18.57
2019-04-06T17:39:46.377Z,20.12
2019-04-06T17:42:16.768Z,18.75
2019-04-06T17:45:03.165Z,20.95
2019-04-06T17:47:49.664Z,21.45
2019-04-06T17:50:28.764Z,21.10
2019-04-06T17:53:01.855Z,19.80
2019-04-06T17:55:34.766Z,21.20
2019-04-06T17:58:14.179Z,22.13
2019-04-06T18:00:59.481Z,22.70
2019-04-06T18:03:45.857Z,20.37
2019-04-06T18:06:25.153Z,20.68
2019-04-06T18:08:58.053Z,22.17
2019-04-06T18:11:28.360Z,20.08
2019-04-06T18:13:58.570Z,21.60
2019-04-06T18:16:29.051Z,20.68
2019-04-06T18:18:57.753Z,22.00
2019-04-06T18:21:26.320Z,22.45
2019-04-06T18:23:57.532Z,21.77
2019-04-06T18:26:26.303Z,22.55
2019-04-06T18:28:55.115Z,22.73
2019-04-06T18:31:31.354Z,24.43
2019-04-06T18:34:00.152Z,23.02
2019-04-06T18:36:30.469Z,23.62
2019-04-06T18:39:00.855Z,22.93
2019-04-06T18:41:29.484Z,25.27
2019-04-06T18:43:58.240Z,23.85
2019-04-06T18:46:27.375Z,23.32
2019-04-06T18:48:56.681Z,22.82
2019-04-06T18:51:25.353Z,24.15
2019-04-06T18:53:54.040Z,23.15
2019-04-06T18:56:22.780Z,24.67
2019-04-06T18:58:51.549Z,24.82
2019-04-06T19:01:20.981Z,24.32
2019-04-06T19:03:49.756Z,25.15
2019-04-06T19:06:19.003Z,25.37
2019-04-06T19:08:47.641Z,25.40
2019-04-06T19:11:16.449Z,26.17
2019-04-06T19:13:45.532Z,23.02
2019-04-06T19:16:16.058Z,26.20
2019-04-06T19:18:44.599Z,25.97
2019-04-06T19:21:13.956Z,25.45
2019-04-06T19:23:42.793Z,24.70
2019-04-06T19:26:11.463Z,25.08
2019-04-06T19:28:40.436Z,24.12
2019-04-06T19:31:09.193Z,26.65
2019-04-06T19:33:37.903Z,23.25
2019-04-06T19:36:08.686Z,23.65
2019-04-06T19:38:37.371Z,21.05
2019-04-06T19:41:06.323Z,25.32
2019-04-06T19:43:35.049Z,24.37
2019-04-06T19:46:04.381Z,24.72
2019-04-06T19:48:33.111Z,25.75
2019-04-06T19:51:01.984Z,24.27
2019-04-06T19:53:31.748Z,26.40
2019-04-06T19:56:09.238Z,26.35
2019-04-06T19:58:38.075Z,25.00
2019-04-06T20:01:06.913Z,27.15
2019-04-06T20:03:37.989Z,25.45
2019-04-06T20:06:05.969Z,25.32
2019-04-06T20:08:34.657Z,25.62
2019-04-06T20:11:03.649Z,25.40
2019-04-06T20:13:32.417Z,23.83
2019-04-06T20:16:01.363Z,24.77
2019-04-06T20:18:30.129Z,23.05
2019-04-06T20:20:58.861Z,24.35
2019-04-06T20:23:27.473Z,22.82
2019-04-06T20:25:56.731Z,22.55
2019-04-06T20:28:25.482Z,25.55
2019-04-06T20:30:54.490Z,20.65
2019-04-06T20:33:23.223Z,22.95
2019-04-06T20:35:52.115Z,23.38
2019-04-06T20:38:20.857Z,22.40
2019-04-06T20:40:49.514Z,22.75
2019-04-06T20:43:18.532Z,23.35
2019-04-06T20:45:47.163Z,23.73
2019-04-06T20:48:15.815Z,23.00
2019-04-06T20:50:45.074Z,23.73
2019-04-06T20:53:13.792Z,24.15
2019-04-06T20:55:42.418Z,25.12
2019-04-06T20:58:11.027Z,27.70
2019-04-06T21:00:39.816Z,27.10
2019-04-06T21:03:08.680Z,28.35
2019-04-06T21:05:38.275Z,31.05
2019-04-06T21:08:07.073Z,29.98
2019-04-06T21:10:36.255Z,30.00
2019-04-06T21:13:06.921Z,31.52
2019-04-06T21:15:35.745Z,31.25
2019-04-06T21:18:04.428Z,31.37
2019-04-06T21:20:33.162Z,31.68
2019-04-06T21:23:01.966Z,31.85
2019-04-06T21:25:31.051Z,33.40
2019-04-06T21:27:59.958Z,33.90
2019-04-06T21:30:28.801Z,31.42
2019-04-06T21:32:57.797Z,32.85
2019-04-06T21:35:26.930Z,31.62
2019-04-06T21:37:55.955Z,32.30
2019-04-06T21:40:25.072Z,32.67
2019-04-06T21:42:53.965Z,32.73
2019-04-06T21:45:23.536Z,32.50
2019-04-06T21:47:52.997Z,32.60
2019-04-06T21:50:21.904Z,31.93
2019-04-06T21:52:50.788Z,35.03
2019-04-06T21:55:19.568Z,31.12
2019-04-06T21:57:48.311Z,34.78
2019-04-06T22:00:35.627Z,33.98
2019-04-06T22:03:04.494Z,33.60
2019-04-06T22:05:33.197Z,32.17
2019-04-06T22:08:02.627Z,35.03
2019-04-06T22:10:31.503Z,31.87
2019-04-06T22:13:00.269Z,31.45
2019-04-06T22:15:29.445Z,30.57
2019-04-06T22:17:58.254Z,31.02
2019-04-06T22:20:28.052Z,29.32
2019-04-06T22:22:57.325Z,30.32
2019-04-06T22:25:26.071Z,27.67
2019-04-06T22:27:55.051Z,27.15
2019-04-06T22:30:43.314Z,28.07
2019-04-06T22:33:11.984Z,26.85
2019-04-06T22:35:40.768Z,26.62
2019-04-06T22:38:09.444Z,25.85
2019-04-06T22:40:38.135Z,23.83
2019-04-06T22:43:06.917Z,24.67
2019-04-06T22:45:37.920Z,23.60
2019-04-06T22:48:06.937Z,23.73
2019-04-06T22:50:36.015Z,22.42
2019-04-06T22:53:05.313Z,24.07
2019-04-06T22:55:34.541Z,21.23
2019-04-06T22:58:03.660Z,23.27
2019-04-06T23:00:43.083Z,23.47
2019-04-06T23:03:22.047Z,22.67
2019-04-06T23:06:08.543Z,22.73
2019-04-06T23:08:37.431Z,23.25
2019-04-06T23:11:06.388Z,24.23
2019-04-06T23:13:37.416Z,25.50
2019-04-06T23:16:06.831Z,26.75
2019-04-06T23:18:35.511Z,24.98
2019-04-06T23:21:04.300Z,25.20
2019-04-06T23:23:34.125Z,24.07
2019-04-06T23:26:02.903Z,24.20
2019-04-06T23:28:31.895Z,24.05
2019-04-06T23:31:00.592Z,24.02
2019-04-06T23:33:29.300Z,24.30
2019-04-06T23:35:58.503Z,23.20
2019-04-06T23:38:27.362Z,23.65
2019-04-06T23:40:56.102Z,23.42
2019-04-06T23:43:24.805Z,23.38
2019-04-06T23:45:53.693Z,23.30
2019-04-06T23:48:22.369Z,23.18
2019-04-06T23:50:51.631Z,22.60
2019-04-06T23:53:20.428Z,22.37
2019-04-06T23:55:49.193Z,24.23
2019-04-06T23:58:17.876Z,23.70
